Airports

 

 

Airport Name Latest METAR Visual Conditions
Atlantic City Int. (ACY) KACY 201154Z 19005KT 10SM OVC004 24/22 A2963 RMK AO2 CIG 003V007 SLP034 70003 T02390222 10239 20222 58007 LIFR
Baltimore International Airport (BWI) KBWI 201154Z 20003KT 8SM BKN008 BKN018 BKN090 BKN250 24/23 A2962 RMK AO2 SLP028 70010 T02440233 10244 20233 52000 IFR
Washington National Airport (DCA) KDCA 201152Z 17007KT 10SM OVC010 25/23 A2963 RMK AO2 SLP034 T02500228 10250 20244 53001 MVFR
Dulles International Airport (IAD) KIAD 201152Z 18004KT 10SM OVC008 23/22 A2963 RMK AO2 SLP031 T02330217 10239 20222 53002 IFR
Norfolk International Airport (ORF) KORF 201151Z AUTO 21013KT 10SM FEW013 26/23 A2969 RMK AO2 SLP053 T02610233 10261 20239 58001 VFR
Raleigh International Airport (RDU) KRDU 201151Z 23010KT 10SM SCT012 BKN250 25/22 A2973 RMK AO2 SLP063 SCT V BKN 70002 T02500222 10250 20233 51002 VFR
Richmond International Airport (RIC) KRIC 201154Z 22009KT 10SM FEW015 FEW150 BKN300 25/22 A2967 RMK AO2 SLP049 70001 T02500222 10250 20228 53003 VFR
Roanoke Regional Airport (ROA) KROA 201154Z 25009KT 10SM BKN120 23/19 A2974 RMK AO2 SLP058 70014 T02280194 10228 20194 53008 VFR